sensor_id;sensor_type;location;lat;lon;timestamp;pressure;altitude;pressure_sealevel;temperature;humidity
71567;BME280;59403;47.456;19.120;2023-04-24T00:01:26;99610.88;;;13.13;67.23
71567;BME280;59403;47.456;19.120;2023-04-24T00:03:54;99608.59;;;13.10;67.50
71567;BME280;59403;47.456;19.120;2023-04-24T00:06:26;99609.41;;;13.11;67.47
71567;BME280;59403;47.456;19.120;2023-04-24T00:08:58;99612.66;;;13.06;68.06
71567;BME280;59403;47.456;19.120;2023-04-24T00:11:25;99616.62;;;12.96;69.08
71567;BME280;59403;47.456;19.120;2023-04-24T00:13:52;99609.72;;;13.01;69.10
71567;BME280;59403;47.456;19.120;2023-04-24T00:16:19;99610.38;;;13.03;69.04
71567;BME280;59403;47.456;19.120;2023-04-24T00:18:46;99607.69;;;13.03;69.39
71567;BME280;59403;47.456;19.120;2023-04-24T00:21:14;99608.91;;;13.01;69.68
71567;BME280;59403;47.456;19.120;2023-04-24T00:23:44;99619.37;;;13.02;70.16
71567;BME280;59403;47.456;19.120;2023-04-24T00:26:11;99620.53;;;13.00;70.32
71567;BME280;59403;47.456;19.120;2023-04-24T00:28:39;99617.53;;;13.03;70.26
71567;BME280;59403;47.456;19.120;2023-04-24T00:31:05;99627.34;;;13.02;70.66
71567;BME280;59403;47.456;19.120;2023-04-24T00:33:33;99631.47;;;13.05;71.07
71567;BME280;59403;47.456;19.120;2023-04-24T00:36:00;99628.41;;;13.08;71.12
71567;BME280;59403;47.456;19.120;2023-04-24T00:38:26;99626.38;;;13.10;70.99
71567;BME280;59403;47.456;19.120;2023-04-24T00:40:55;99622.72;;;13.11;70.28
71567;BME280;59403;47.456;19.120;2023-04-24T00:43:22;99619.09;;;13.18;69.53
71567;BME280;59403;47.456;19.120;2023-04-24T00:45:49;99618.03;;;13.13;69.50
71567;BME280;59403;47.456;19.120;2023-04-24T00:48:16;99609.91;;;13.21;69.42
71567;BME280;59403;47.456;19.120;2023-04-24T00:50:43;99610.13;;;13.26;68.91
71567;BME280;59403;47.456;19.120;2023-04-24T00:53:10;99609.12;;;13.27;69.34
71567;BME280;59403;47.456;19.120;2023-04-24T00:55:37;99601.41;;;13.32;68.93
71567;BME280;59403;47.456;19.120;2023-04-24T00:58:05;99601.00;;;13.35;68.71
71567;BME280;59403;47.456;19.120;2023-04-24T01:03:55;99596.69;;;13.27;67.32
71567;BME280;59403;47.456;19.120;2023-04-24T01:06:27;99597.91;;;13.31;67.19
71567;BME280;59403;47.456;19.120;2023-04-24T01:08:58;99596.91;;;13.32;66.92
71567;BME280;59403;47.456;19.120;2023-04-24T01:11:26;99604.25;;;13.30;66.98
71567;BME280;59403;47.456;19.120;2023-04-24T01:13:55;99603.44;;;13.30;66.71
71567;BME280;59403;47.456;19.120;2023-04-24T01:16:22;99607.88;;;13.23;67.03
71567;BME280;59403;47.456;19.120;2023-04-24T01:18:50;99608.25;;;13.20;67.75
71567;BME280;59403;47.456;19.120;2023-04-24T01:21:18;99602.56;;;13.23;67.21
71567;BME280;59403;47.456;19.120;2023-04-24T01:23:46;99605.41;;;13.21;67.13
71567;BME280;59403;47.456;19.120;2023-04-24T01:26:16;99604.13;;;13.17;67.59
71567;BME280;59403;47.456;19.120;2023-04-24T01:28:45;99605.37;;;13.15;68.10
71567;BME280;59403;47.456;19.120;2023-04-24T01:31:12;99597.75;;;13.12;68.69
71567;BME280;59403;47.456;19.120;2023-04-24T01:33:39;99591.19;;;13.08;68.51
71567;BME280;59403;47.456;19.120;2023-04-24T01:36:09;99586.44;;;13.03;68.22
71567;BME280;59403;47.456;19.120;2023-04-24T01:38:37;99587.50;;;13.09;68.03
71567;BME280;59403;47.456;19.120;2023-04-24T01:41:05;99588.38;;;13.16;67.78
71567;BME280;59403;47.456;19.120;2023-04-24T01:43:32;99590.59;;;13.12;68.56
71567;BME280;59403;47.456;19.120;2023-04-24T01:45:59;99581.19;;;13.10;68.15
71567;BME280;59403;47.456;19.120;2023-04-24T01:48:26;99577.06;;;13.07;67.98
71567;BME280;59403;47.456;19.120;2023-04-24T01:50:53;99576.31;;;13.13;68.03
71567;BME280;59403;47.456;19.120;2023-04-24T01:53:20;99572.78;;;13.06;68.40
71567;BME280;59403;47.456;19.120;2023-04-24T01:55:47;99569.09;;;13.07;69.44
71567;BME280;59403;47.456;19.120;2023-04-24T01:58:15;99554.62;;;13.10;70.28
71567;BME280;59403;47.456;19.120;2023-04-24T02:00:42;99554.47;;;12.97;71.25
71567;BME280;59403;47.456;19.120;2023-04-24T02:03:09;99542.09;;;12.83;74.46
71567;BME280;59403;47.456;19.120;2023-04-24T02:05:36;99517.59;;;12.38;82.61
71567;BME280;59403;47.456;19.120;2023-04-24T02:08:02;99521.00;;;12.32;83.25
71567;BME280;59403;47.456;19.120;2023-04-24T02:10:29;99517.06;;;12.28;91.22
71567;BME280;59403;47.456;19.120;2023-04-24T02:12:56;99510.91;;;12.21;91.12
71567;BME280;59403;47.456;19.120;2023-04-24T02:15:26;99501.53;;;12.25;89.30
71567;BME280;59403;47.456;19.120;2023-04-24T02:17:53;99506.19;;;12.23;93.27
71567;BME280;59403;47.456;19.120;2023-04-24T02:20:20;99501.31;;;12.06;93.27
71567;BME280;59403;47.456;19.120;2023-04-24T02:22:46;99489.38;;;12.16;93.73
71567;BME280;59403;47.456;19.120;2023-04-24T02:25:13;99491.09;;;12.24;93.07
71567;BME280;59403;47.456;19.120;2023-04-24T02:27:40;99489.91;;;12.26;92.81
71567;BME280;59403;47.456;19.120;2023-04-24T02:30:08;99500.13;;;12.29;92.38
71567;BME280;59403;47.456;19.120;2023-04-24T02:32:36;99490.97;;;12.32;93.74
71567;BME280;59403;47.456;19.120;2023-04-24T02:35:05;99497.09;;;12.32;95.49
71567;BME280;59403;47.456;19.120;2023-04-24T02:37:32;99492.19;;;12.29;98.31
71567;BME280;59403;47.456;19.120;2023-04-24T02:39:59;99494.06;;;12.35;95.22
71567;BME280;59403;47.456;19.120;2023-04-24T02:42:26;99497.09;;;12.32;95.27
71567;BME280;59403;47.456;19.120;2023-04-24T02:44:52;99485.47;;;12.33;97.32
71567;BME280;59403;47.456;19.120;2023-04-24T02:47:19;99494.50;;;12.39;96.23
71567;BME280;59403;47.456;19.120;2023-04-24T02:49:48;99489.38;;;12.37;95.09
71567;BME280;59403;47.456;19.120;2023-04-24T02:52:14;99496.53;;;12.37;97.23
71567;BME280;59403;47.456;19.120;2023-04-24T02:54:42;99491.09;;;12.45;96.94
71567;BME280;59403;47.456;19.120;2023-04-24T02:57:09;99488.44;;;12.45;98.09
71567;BME280;59403;47.456;19.120;2023-04-24T02:59:35;99487.59;;;12.44;99.30
71567;BME280;59403;47.456;19.120;2023-04-24T03:02:02;99482.25;;;12.38;98.56
71567;BME280;59403;47.456;19.120;2023-04-24T03:04:29;99477.88;;;12.30;100.00
71567;BME280;59403;47.456;19.120;2023-04-24T03:06:57;99480.53;;;12.30;100.00
71567;BME280;59403;47.456;19.120;2023-04-24T03:09:24;99487.59;;;12.23;100.00
71567;BME280;59403;47.456;19.120;2023-04-24T03:11:51;99486.38;;;12.19;100.00
71567;BME280;59403;47.456;19.120;2023-04-24T03:14:18;99485.97;;;12.22;100.00
71567;BME280;59403;47.456;19.120;2023-04-24T03:16:44;99493.50;;;12.19;100.00
71567;BME280;59403;47.456;19.120;2023-04-24T03:19:11;99487.06;;;12.28;100.00
71567;BME280;59403;47.456;19.120;2023-04-24T03:21:39;99492.91;;;12.23;100.00
71567;BME280;59403;47.456;19.120;2023-04-24T03:24:08;99494.38;;;12.26;100.00
71567;BME280;59403;47.456;19.120;2023-04-24T03:26:35;99503.00;;;12.28;100.00
71567;BME280;59403;47.456;19.120;2023-04-24T03:29:02;99493.75;;;12.24;100.00
71567;BME280;59403;47.456;19.120;2023-04-24T03:31:28;99487.31;;;12.12;100.00
71567;BME280;59403;47.456;19.120;2023-04-24T03:33:55;99493.13;;;12.22;100.00
71567;BME280;59403;47.456;19.120;2023-04-24T03:36:22;99491.69;;;12.19;100.00
71567;BME280;59403;47.456;19.120;2023-04-24T03:38:49;99482.66;;;11.99;100.00
71567;BME280;59403;47.456;19.120;2023-04-24T03:41:17;99481.91;;;11.84;100.00
71567;BME280;59403;47.456;19.120;2023-04-24T03:43:44;99483.53;;;11.85;100.00
71567;BME280;59403;47.456;19.120;2023-04-24T03:46:11;99467.81;;;11.84;100.00
71567;BME280;59403;47.456;19.120;2023-04-24T03:48:38;99469.78;;;11.96;100.00
71567;BME280;59403;47.456;19.120;2023-04-24T03:51:05;99479.22;;;11.99;100.00
71567;BME280;59403;47.456;19.120;2023-04-24T03:53:31;99489.63;;;12.00;100.00
71567;BME280;59403;47.456;19.120;2023-04-24T03:55:58;99483.13;;;12.03;100.00
71567;BME280;59403;47.456;19.120;2023-04-24T03:58:27;99480.66;;;12.01;100.00
71567;BME280;59403;47.456;19.120;2023-04-24T04:00:53;99478.25;;;12.06;100.00
71567;BME280;59403;47.456;19.120;2023-04-24T04:03:22;99472.50;;;12.03;100.00
71567;BME280;59403;47.456;19.120;2023-04-24T04:05:49;99468.44;;;11.86;100.00
71567;BME280;59403;47.456;19.120;2023-04-24T04:08:16;99475.13;;;11.82;100.00
71567;BME280;59403;47.456;19.120;2023-04-24T04:10:43;99471.09;;;11.86;100.00
71567;BME280;59403;47.456;19.120;2023-04-24T04:13:10;99482.53;;;11.86;100.00
71567;BME280;59403;47.456;19.120;2023-04-24T04:15:38;99472.44;;;11.96;100.00
71567;BME280;59403;47.456;19.120;2023-04-24T04:18:05;99476.63;;;12.05;100.00
71567;BME280;59403;47.456;19.120;2023-04-24T04:20:32;99473.41;;;12.10;100.00
71567;BME280;59403;47.456;19.120;2023-04-24T04:22:58;99470.75;;;12.10;100.00
71567;BME280;59403;47.456;19.120;2023-04-24T04:25:25;99473.00;;;12.13;100.00
71567;BME280;59403;47.456;19.120;2023-04-24T04:27:52;99473.34;;;12.24;100.00
71567;BME280;59403;47.456;19.120;2023-04-24T04:30:19;99480.78;;;12.35;100.00
71567;BME280;59403;47.456;19.120;2023-04-24T04:32:47;99494.75;;;12.44;100.00
71567;BME280;59403;47.456;19.120;2023-04-24T04:35:14;99500.34;;;12.49;100.00
71567;BME280;59403;47.456;19.120;2023-04-24T04:37:41;99507.09;;;12.51;99.28
71567;BME280;59403;47.456;19.120;2023-04-24T04:40:08;99498.81;;;12.61;99.54
71567;BME280;59403;47.456;19.120;2023-04-24T04:42:37;99495.31;;;12.61;98.98
71567;BME280;59403;47.456;19.120;2023-04-24T04:45:06;99481.84;;;12.62;99.45
71567;BME280;59403;47.456;19.120;2023-04-24T04:47:34;99470.78;;;12.58;100.00
71567;BME280;59403;47.456;19.120;2023-04-24T04:50:04;99474.25;;;12.59;99.80
71567;BME280;59403;47.456;19.120;2023-04-24T04:52:31;99466.28;;;12.59;98.27
71567;BME280;59403;47.456;19.120;2023-04-24T04:54:58;99467.91;;;12.60;98.40
71567;BME280;59403;47.456;19.120;2023-04-24T04:57:25;99465.06;;;12.62;98.64
71567;BME280;59403;47.456;19.120;2023-04-24T04:59:51;99454.19;;;12.56;97.33
71567;BME280;59403;47.456;19.120;2023-04-24T05:02:18;99452.19;;;12.58;97.17
71567;BME280;59403;47.456;19.120;2023-04-24T05:04:46;99452.19;;;12.58;96.14
71567;BME280;59403;47.456;19.120;2023-04-24T05:07:14;99450.59;;;12.64;95.33
71567;BME280;59403;47.456;19.120;2023-04-24T05:09:41;99460.00;;;12.67;95.47
71567;BME280;59403;47.456;19.120;2023-04-24T05:12:07;99461.66;;;12.68;94.73
71567;BME280;59403;47.456;19.120;2023-04-24T05:14:34;99465.56;;;12.72;94.35
71567;BME280;59403;47.456;19.120;2023-04-24T05:17:01;99462.72;;;12.73;94.84
71567;BME280;59403;47.456;19.120;2023-04-24T05:19:28;99459.91;;;12.81;94.16
71567;BME280;59403;47.456;19.120;2023-04-24T05:21:55;99455.62;;;12.80;93.78
71567;BME280;59403;47.456;19.120;2023-04-24T05:24:23;99454.59;;;12.81;94.61
71567;BME280;59403;47.456;19.120;2023-04-24T05:26:50;99459.75;;;12.89;93.26
71567;BME280;59403;47.456;19.120;2023-04-24T05:29:17;99459.19;;;12.94;94.18
71567;BME280;59403;47.456;19.120;2023-04-24T05:31:44;99461.03;;;13.00;95.23
71567;BME280;59403;47.456;19.120;2023-04-24T05:34:11;99459.72;;;13.10;93.48
71567;BME280;59403;47.456;19.120;2023-04-24T05:36:38;99466.06;;;13.09;92.97
71567;BME280;59403;47.456;19.120;2023-04-24T05:39:05;99460.56;;;13.17;92.20
71567;BME280;59403;47.456;19.120;2023-04-24T05:41:33;99464.28;;;13.23;92.12
71567;BME280;59403;47.456;19.120;2023-04-24T05:44:00;99470.91;;;13.33;91.98
71567;BME280;59403;47.456;19.120;2023-04-24T05:46:26;99469.09;;;13.40;91.81
71567;BME280;59403;47.456;19.120;2023-04-24T05:48:53;99480.69;;;13.33;91.56
71567;BME280;59403;47.456;19.120;2023-04-24T05:51:20;99487.69;;;13.34;92.19
71567;BME280;59403;47.456;19.120;2023-04-24T05:53:47;99488.31;;;13.36;92.13
71567;BME280;59403;47.456;19.120;2023-04-24T05:56:23;99485.66;;;13.36;91.52
71567;BME280;59403;47.456;19.120;2023-04-24T05:58:51;99489.94;;;13.37;92.06
71567;BME280;59403;47.456;19.120;2023-04-24T06:01:18;99483.13;;;13.28;92.20
71567;BME280;59403;47.456;19.120;2023-04-24T06:03:45;99482.69;;;13.24;91.99
71567;BME280;59403;47.456;19.120;2023-04-24T06:06:12;99489.25;;;13.22;91.57
71567;BME280;59403;47.456;19.120;2023-04-24T06:08:39;99485.38;;;13.24;93.33
71567;BME280;59403;47.456;19.120;2023-04-24T06:11:08;99479.50;;;13.35;91.61
71567;BME280;59403;47.456;19.120;2023-04-24T06:13:34;99490.56;;;13.39;92.63
71567;BME280;59403;47.456;19.120;2023-04-24T06:16:03;99491.41;;;13.39;92.54
71567;BME280;59403;47.456;19.120;2023-04-24T06:18:30;99489.81;;;13.51;91.48
71567;BME280;59403;47.456;19.120;2023-04-24T06:20:57;99493.91;;;13.54;90.95
71567;BME280;59403;47.456;19.120;2023-04-24T06:23:23;99502.16;;;13.65;90.73
71567;BME280;59403;47.456;19.120;2023-04-24T06:25:50;99503.69;;;13.88;89.10
71567;BME280;59403;47.456;19.120;2023-04-24T06:28:17;99499.94;;;13.76;89.82
71567;BME280;59403;47.456;19.120;2023-04-24T06:30:44;99501.34;;;13.72;89.27
71567;BME280;59403;47.456;19.120;2023-04-24T06:33:13;99493.00;;;13.81;89.12
71567;BME280;59403;47.456;19.120;2023-04-24T06:35:40;99490.50;;;13.66;90.37
71567;BME280;59403;47.456;19.120;2023-04-24T06:38:07;99487.81;;;13.60;91.18
71567;BME280;59403;47.456;19.120;2023-04-24T06:40:33;99498.59;;;13.52;90.86
71567;BME280;59403;47.456;19.120;2023-04-24T06:43:00;99507.78;;;13.43;94.05
71567;BME280;59403;47.456;19.120;2023-04-24T06:45:28;99502.56;;;13.28;98.28
71567;BME280;59403;47.456;19.120;2023-04-24T06:47:55;99505.00;;;13.23;100.00
71567;BME280;59403;47.456;19.120;2023-04-24T06:50:24;99503.22;;;13.30;100.00
71567;BME280;59403;47.456;19.120;2023-04-24T06:52:51;99500.31;;;13.25;99.79
71567;BME280;59403;47.456;19.120;2023-04-24T06:55:18;99501.50;;;13.23;100.00
71567;BME280;59403;47.456;19.120;2023-04-24T06:57:44;99486.97;;;13.19;100.00
71567;BME280;59403;47.456;19.120;2023-04-24T07:00:12;99489.19;;;13.15;100.00
71567;BME280;59403;47.456;19.120;2023-04-24T07:02:39;99488.03;;;13.24;100.00
71567;BME280;59403;47.456;19.120;2023-04-24T07:05:06;99484.84;;;13.42;100.00
71567;BME280;59403;47.456;19.120;2023-04-24T07:07:35;99485.50;;;13.50;100.00
71567;BME280;59403;47.456;19.120;2023-04-24T07:10:04;99478.97;;;13.53;100.00
71567;BME280;59403;47.456;19.120;2023-04-24T07:12:30;99476.72;;;13.50;100.00
71567;BME280;59403;47.456;19.120;2023-04-24T07:14:57;99479.22;;;13.64;100.00
71567;BME280;59403;47.456;19.120;2023-04-24T07:17:24;99470.47;;;13.84;100.00
71567;BME280;59403;47.456;19.120;2023-04-24T07:19:51;99477.50;;;13.98;99.13
71567;BME280;59403;47.456;19.120;2023-04-24T07:22:18;99485.25;;;13.93;99.81
71567;BME280;59403;47.456;19.120;2023-04-24T07:24:46;99483.78;;;13.84;100.00
71567;BME280;59403;47.456;19.120;2023-04-24T07:27:13;99493.00;;;13.81;99.65
71567;BME280;59403;47.456;19.120;2023-04-24T07:29:40;99502.41;;;13.77;100.00
71567;BME280;59403;47.456;19.120;2023-04-24T07:32:07;99504.41;;;13.68;100.00
71567;BME280;59403;47.456;19.120;2023-04-24T07:34:34;99502.81;;;13.74;100.00
71567;BME280;59403;47.456;19.120;2023-04-24T07:37:01;99492.53;;;13.64;100.00
71567;BME280;59403;47.456;19.120;2023-04-24T07:39:28;99489.63;;;13.53;100.00
71567;BME280;59403;47.456;19.120;2023-04-24T07:41:57;99493.16;;;13.73;100.00
71567;BME280;59403;47.456;19.120;2023-04-24T07:44:25;99490.50;;;13.73;100.00
71567;BME280;59403;47.456;19.120;2023-04-24T07:46:52;99485.03;;;13.81;100.00
71567;BME280;59403;47.456;19.120;2023-04-24T07:49:19;99480.56;;;13.88;100.00
71567;BME280;59403;47.456;19.120;2023-04-24T07:51:46;99483.84;;;14.03;100.00
71567;BME280;59403;47.456;19.120;2023-04-24T07:54:13;99482.22;;;14.09;100.00
71567;BME280;59403;47.456;19.120;2023-04-24T07:56:40;99474.03;;;14.10;100.00
71567;BME280;59403;47.456;19.120;2023-04-24T07:59:09;99480.81;;;14.19;100.00
71567;BME280;59403;47.456;19.120;2023-04-24T08:01:39;99479.44;;;14.43;100.00
71567;BME280;59403;47.456;19.120;2023-04-24T08:04:07;99490.09;;;14.49;99.65
71567;BME280;59403;47.456;19.120;2023-04-24T08:06:34;99491.75;;;14.83;100.00
71567;BME280;59403;47.456;19.120;2023-04-24T08:09:01;99497.84;;;15.23;97.34
71567;BME280;59403;47.456;19.120;2023-04-24T08:11:28;99490.16;;;15.59;93.76
71567;BME280;59403;47.456;19.120;2023-04-24T08:13:55;99479.78;;;15.44;90.39
71567;BME280;59403;47.456;19.120;2023-04-24T08:16:23;99477.09;;;15.44;91.13
71567;BME280;59403;47.456;19.120;2023-04-24T08:18:50;99472.78;;;15.24;90.27
71567;BME280;59403;47.456;19.120;2023-04-24T08:21:17;99472.59;;;15.25;91.24
71567;BME280;59403;47.456;19.120;2023-04-24T08:23:45;99466.44;;;15.25;89.59
71567;BME280;59403;47.456;19.120;2023-04-24T08:26:12;99468.84;;;15.52;89.79
71567;BME280;59403;47.456;19.120;2023-04-24T08:28:39;99478.31;;;15.55;88.70
71567;BME280;59403;47.456;19.120;2023-04-24T08:31:06;99478.88;;;15.63;88.57
71567;BME280;59403;47.456;19.120;2023-04-24T08:33:35;99471.09;;;15.62;88.67
71567;BME280;59403;47.456;19.120;2023-04-24T08:36:02;99477.81;;;15.71;88.23
71567;BME280;59403;47.456;19.120;2023-04-24T08:38:30;99470.47;;;15.98;88.33
71567;BME280;59403;47.456;19.120;2023-04-24T08:40:58;99478.06;;;16.38;85.66
71567;BME280;59403;47.456;19.120;2023-04-24T08:43:26;99477.28;;;16.31;85.79
71567;BME280;59403;47.456;19.120;2023-04-24T08:45:55;99475.53;;;16.43;84.63
71567;BME280;59403;47.456;19.120;2023-04-24T08:48:23;99470.38;;;16.17;84.88
71567;BME280;59403;47.456;19.120;2023-04-24T08:50:51;99470.53;;;16.22;84.79
71567;BME280;59403;47.456;19.120;2023-04-24T08:53:18;99469.16;;;16.44;84.78
71567;BME280;59403;47.456;19.120;2023-04-24T08:55:47;99473.13;;;16.35;84.67
71567;BME280;59403;47.456;19.120;2023-04-24T08:58:16;99474.44;;;16.20;84.31
71567;BME280;59403;47.456;19.120;2023-04-24T09:00:43;99486.84;;;16.08;83.57
71567;BME280;59403;47.456;19.120;2023-04-24T09:03:13;99471.66;;;16.08;84.04
71567;BME280;59403;47.456;19.120;2023-04-24T09:05:41;99469.38;;;16.12;83.55
71567;BME280;59403;47.456;19.120;2023-04-24T09:08:12;99473.84;;;16.55;83.63
71567;BME280;59403;47.456;19.120;2023-04-24T09:10:40;99471.59;;;16.77;81.83
71567;BME280;59403;47.456;19.120;2023-04-24T09:13:07;99464.75;;;16.81;80.79
71567;BME280;59403;47.456;19.120;2023-04-24T09:15:37;99458.94;;;17.09;80.02
71567;BME280;59403;47.456;19.120;2023-04-24T09:18:05;99466.25;;;17.20;79.32
71567;BME280;59403;47.456;19.120;2023-04-24T09:20:32;99466.53;;;17.30;78.25
71567;BME280;59403;47.456;19.120;2023-04-24T09:23:01;99463.19;;;17.16;78.00
71567;BME280;59403;47.456;19.120;2023-04-24T09:25:32;99459.41;;;17.42;77.61
71567;BME280;59403;47.456;19.120;2023-04-24T09:28:01;99457.53;;;17.78;76.24
71567;BME280;59403;47.456;19.120;2023-04-24T09:30:29;99454.00;;;18.37;75.47
71567;BME280;59403;47.456;19.120;2023-04-24T09:33:12;99460.00;;;18.51;72.87
71567;BME280;59403;47.456;19.120;2023-04-24T09:35:41;99449.47;;;18.38;72.80
71567;BME280;59403;47.456;19.120;2023-04-24T09:38:08;99446.47;;;18.46;71.02
71567;BME280;59403;47.456;19.120;2023-04-24T09:40:37;99446.38;;;18.52;70.66
71567;BME280;59403;47.456;19.120;2023-04-24T09:43:04;99447.44;;;18.63;71.90
71567;BME280;59403;47.456;19.120;2023-04-24T09:45:37;99445.81;;;18.62;71.36
71567;BME280;59403;47.456;19.120;2023-04-24T09:48:05;99439.06;;;18.71;71.02
71567;BME280;59403;47.456;19.120;2023-04-24T09:50:33;99434.12;;;18.68;70.39
71567;BME280;59403;47.456;19.120;2023-04-24T09:53:03;99438.22;;;18.70;69.49
71567;BME280;59403;47.456;19.120;2023-04-24T09:55:30;99425.41;;;18.84;68.03
71567;BME280;59403;47.456;19.120;2023-04-24T09:58:00;99435.44;;;18.65;66.89
71567;BME280;59403;47.456;19.120;2023-04-24T10:00:28;99439.16;;;18.53;68.75
71567;BME280;59403;47.456;19.120;2023-04-24T10:02:57;99423.16;;;18.46;69.03
71567;BME280;59403;47.456;19.120;2023-04-24T10:05:26;99436.22;;;18.43;69.76
71567;BME280;59403;47.456;19.120;2023-04-24T10:07:56;99426.31;;;18.43;70.28
71567;BME280;59403;47.456;19.120;2023-04-24T10:10:23;99426.97;;;18.39;67.00
71567;BME280;59403;47.456;19.120;2023-04-24T10:12:51;99424.44;;;18.44;67.65
71567;BME280;59403;47.456;19.120;2023-04-24T10:15:20;99427.19;;;18.37;66.08
71567;BME280;59403;47.456;19.120;2023-04-24T10:17:48;99425.09;;;18.39;66.22
71567;BME280;59403;47.456;19.120;2023-04-24T10:20:19;99430.53;;;18.62;66.00
71567;BME280;59403;47.456;19.120;2023-04-24T10:22:48;99426.69;;;18.58;65.30
71567;BME280;59403;47.456;19.120;2023-04-24T10:25:17;99426.31;;;18.66;64.38
71567;BME280;59403;47.456;19.120;2023-04-24T10:27:46;99429.94;;;18.60;66.99
71567;BME280;59403;47.456;19.120;2023-04-24T10:30:14;99429.75;;;18.21;64.58
71567;BME280;59403;47.456;19.120;2023-04-24T10:32:43;99424.78;;;18.06;66.16
71567;BME280;59403;47.456;19.120;2023-04-24T10:35:12;99422.44;;;17.98;66.38
71567;BME280;59403;47.456;19.120;2023-04-24T10:37:42;99419.78;;;17.98;68.04
71567;BME280;59403;47.456;19.120;2023-04-24T10:40:10;99417.72;;;17.82;68.27
71567;BME280;59403;47.456;19.120;2023-04-24T10:42:40;99424.19;;;17.92;67.95
71567;BME280;59403;47.456;19.120;2023-04-24T10:45:16;99424.09;;;17.81;67.11
71567;BME280;59403;47.456;19.120;2023-04-24T10:47:51;99425.62;;;17.77;69.14
71567;BME280;59403;47.456;19.120;2023-04-24T10:50:18;99416.25;;;17.86;69.84
71567;BME280;59403;47.456;19.120;2023-04-24T10:52:45;99411.69;;;17.86;69.13
71567;BME280;59403;47.456;19.120;2023-04-24T10:55:14;99424.72;;;17.83;68.08
71567;BME280;59403;47.456;19.120;2023-04-24T10:58:06;99418.31;;;17.84;67.41
71567;BME280;59403;47.456;19.120;2023-04-24T11:00:36;99415.31;;;17.92;70.70
71567;BME280;59403;47.456;19.120;2023-04-24T11:03:06;99414.56;;;17.73;70.01
71567;BME280;59403;47.456;19.120;2023-04-24T11:05:51;99408.28;;;17.79;71.59
71567;BME280;59403;47.456;19.120;2023-04-24T11:08:30;99408.56;;;17.89;69.17
71567;BME280;59403;47.456;19.120;2023-04-24T11:11:00;99404.13;;;17.95;68.43
71567;BME280;59403;47.456;19.120;2023-04-24T11:14:03;99401.38;;;18.01;68.81
71567;BME280;59403;47.456;19.120;2023-04-24T11:16:32;99401.31;;;18.31;68.09
71567;BME280;59403;47.456;19.120;2023-04-24T11:19:18;99392.28;;;18.67;67.08
71567;BME280;59403;47.456;19.120;2023-04-24T11:21:47;99389.72;;;18.83;66.51
71567;BME280;59403;47.456;19.120;2023-04-24T11:24:27;99396.09;;;18.94;68.83
71567;BME280;59403;47.456;19.120;2023-04-24T11:26:55;99390.03;;;18.87;66.81
71567;BME280;59403;47.456;19.120;2023-04-24T11:29:22;99399.03;;;18.92;67.11
71567;BME280;59403;47.456;19.120;2023-04-24T11:31:49;99392.75;;;18.75;67.90
71567;BME280;59403;47.456;19.120;2023-04-24T11:34:18;99389.59;;;18.67;69.26
71567;BME280;59403;47.456;19.120;2023-04-24T11:36:45;99391.66;;;18.99;68.67
71567;BME280;59403;47.456;19.120;2023-04-24T11:39:13;99372.06;;;19.10;67.40
71567;BME280;59403;47.456;19.120;2023-04-24T11:41:41;99383.50;;;19.06;67.59
71567;BME280;59403;47.456;19.120;2023-04-24T11:44:08;99373.47;;;19.01;67.94
71567;BME280;59403;47.456;19.120;2023-04-24T11:46:36;99371.25;;;18.98;67.63
71567;BME280;59403;47.456;19.120;2023-04-24T11:49:05;99370.78;;;19.01;67.90
71567;BME280;59403;47.456;19.120;2023-04-24T11:51:34;99367.47;;;19.22;66.94
71567;BME280;59403;47.456;19.120;2023-04-24T11:54:01;99356.31;;;19.82;67.14
71567;BME280;59403;47.456;19.120;2023-04-24T11:56:28;99367.34;;;19.69;65.95
71567;BME280;59403;47.456;19.120;2023-04-24T11:58:55;99353.72;;;19.59;66.69
71567;BME280;59403;47.456;19.120;2023-04-24T12:01:22;99363.50;;;19.37;68.07
71567;BME280;59403;47.456;19.120;2023-04-24T12:03:49;99361.22;;;19.05;67.16
71567;BME280;59403;47.456;19.120;2023-04-24T12:06:17;99358.81;;;18.81;68.13
71567;BME280;59403;47.456;19.120;2023-04-24T12:08:47;99366.28;;;18.67;70.08
71567;BME280;59403;47.456;19.120;2023-04-24T12:11:16;99363.25;;;18.64;71.12
71567;BME280;59403;47.456;19.120;2023-04-24T12:13:44;99355.56;;;19.18;68.63
71567;BME280;59403;47.456;19.120;2023-04-24T12:16:12;99357.66;;;19.28;69.04
71567;BME280;59403;47.456;19.120;2023-04-24T12:18:43;99355.97;;;19.95;66.99
71567;BME280;59403;47.456;19.120;2023-04-24T12:21:18;99348.50;;;19.97;65.28
71567;BME280;59403;47.456;19.120;2023-04-24T12:23:47;99351.34;;;20.07;64.05
71567;BME280;59403;47.456;19.120;2023-04-24T12:26:16;99339.91;;;20.45;64.47
71567;BME280;59403;47.456;19.120;2023-04-24T12:28:47;99342.47;;;20.73;63.96
71567;BME280;59403;47.456;19.120;2023-04-24T12:31:15;99339.03;;;20.61;63.51
71567;BME280;59403;47.456;19.120;2023-04-24T12:33:42;99328.19;;;20.34;65.83
71567;BME280;59403;47.456;19.120;2023-04-24T12:36:10;99323.94;;;20.21;65.53
71567;BME280;59403;47.456;19.120;2023-04-24T12:38:38;99322.63;;;20.41;65.81
71567;BME280;59403;47.456;19.120;2023-04-24T12:41:09;99315.13;;;20.26;66.99
71567;BME280;59403;47.456;19.120;2023-04-24T12:43:36;99318.53;;;20.38;67.27
71567;BME280;59403;47.456;19.120;2023-04-24T12:46:03;99319.66;;;20.09;67.10
71567;BME280;59403;47.456;19.120;2023-04-24T12:48:31;99324.31;;;19.52;68.93
71567;BME280;59403;47.456;19.120;2023-04-24T12:50:58;99317.22;;;19.06;70.11
71567;BME280;59403;47.456;19.120;2023-04-24T12:53:27;99307.97;;;19.14;71.39
71567;BME280;59403;47.456;19.120;2023-04-24T12:55:56;99309.06;;;19.41;70.87